createdAt,value
2023-02-24T00:01:01.417Z,35.4
2023-02-24T00:06:06.426Z,34.0
2023-02-24T00:11:03.446Z,33.0
2023-02-24T00:16:01.401Z,32.0
2023-02-24T00:21:01.277Z,30.8
2023-02-24T00:26:01.480Z,29.6
2023-02-24T00:31:06.668Z,29.6
2023-02-24T00:36:01.268Z,29.8
2023-02-24T00:41:01.325Z,29.6
2023-02-24T00:46:06.637Z,29.3
2023-02-24T00:51:07.259Z,29.4
2023-02-24T00:56:01.272Z,28.9
2023-02-24T01:01:01.303Z,28.9
2023-02-24T01:06:01.453Z,28.6
2023-02-24T01:11:06.365Z,28.2
2023-02-24T01:16:01.457Z,27.8
2023-02-24T01:21:06.420Z,27.3
2023-02-24T01:26:01.293Z,25.8
2023-02-24T01:31:01.780Z,25.4
2023-02-24T01:36:06.328Z,24.6
2023-02-24T01:41:06.569Z,23.8
2023-02-24T01:46:06.435Z,23.2
2023-02-24T01:56:01.277Z,22.0
2023-02-24T02:01:06.469Z,21.8
2023-02-24T02:06:01.539Z,21.5
2023-02-24T02:11:02.815Z,21.2
2023-02-24T02:16:01.494Z,20.6
2023-02-24T02:21:06.402Z,20.5
2023-02-24T02:26:06.390Z,20.2
2023-02-24T02:31:06.886Z,19.3
2023-02-24T02:36:06.365Z,19.0
2023-02-24T02:41:01.448Z,18.8
2023-02-24T03:05:09.004Z,15.0
2023-02-24T03:10:06.385Z,15.1
2023-02-24T03:15:04.938Z,16.3
2023-02-24T03:20:01.353Z,17.1
2023-02-24T03:25:02.684Z,16.8
2023-02-24T03:30:09.452Z,17.2
2023-02-24T03:35:01.475Z,18.3
2023-02-24T03:40:01.359Z,17.7
2023-02-24T03:45:02.622Z,17.2
2023-02-24T03:50:01.402Z,17.4
2023-02-24T03:55:01.390Z,17.3
2023-02-24T04:00:10.725Z,16.2
2023-02-24T04:05:06.964Z,16.0
2023-02-24T04:10:01.344Z,15.6
2023-02-24T04:15:11.651Z,15.0
2023-02-24T04:21:07.672Z,14.6
2023-02-24T04:26:01.346Z,14.8
2023-02-24T04:31:07.926Z,14.4
2023-02-24T04:36:06.332Z,14.0
2023-02-24T04:41:06.449Z,14.0
2023-02-24T04:46:06.415Z,13.9
2023-02-24T04:51:02.231Z,13.4
2023-02-24T04:56:01.269Z,13.4
2023-02-24T05:01:01.468Z,13.8
2023-02-24T05:06:06.314Z,13.8
2023-02-24T05:16:05.384Z,13.2
2023-02-24T05:21:03.076Z,12.0
2023-02-24T05:26:01.404Z,10.7
2023-02-24T05:31:01.711Z,9.5
2023-02-24T05:36:01.431Z,8.2
2023-02-24T05:41:01.280Z,6.6
2023-02-24T05:46:01.272Z,6.5
2023-02-24T05:51:01.278Z,6.1
2023-02-24T05:56:02.675Z,5.2
2023-02-24T06:01:08.322Z,4.2
2023-02-24T06:06:06.300Z,4.4
2023-02-24T06:11:01.326Z,3.6
2023-02-24T06:16:03.106Z,2.8
2023-02-24T06:21:01.277Z,2.6
2023-02-24T06:26:06.310Z,2.7
2023-02-24T06:31:01.429Z,3.0
2023-02-24T06:36:06.492Z,3.4
2023-02-24T06:41:06.307Z,3.5
2023-02-24T06:46:01.515Z,4.3
2023-02-24T06:51:06.469Z,5.1
2023-02-24T06:56:01.710Z,5.5
2023-02-24T07:01:01.486Z,5.1
2023-02-24T07:06:01.976Z,5.1
2023-02-24T07:11:06.476Z,4.7
2023-02-24T07:16:06.294Z,3.9
2023-02-24T07:21:01.742Z,3.4
2023-02-24T07:26:06.365Z,3.9
2023-02-24T07:31:04.606Z,6.5
2023-02-24T07:36:06.350Z,9.5
2023-02-24T07:41:02.511Z,10.9
2023-02-24T07:46:06.535Z,12.5
2023-02-24T07:51:06.470Z,13.1
2023-02-24T07:56:08.793Z,10.9
2023-02-24T08:01:01.336Z,7.4
2023-02-24T08:06:01.359Z,5.8
2023-02-24T08:11:06.373Z,4.3
2023-02-24T08:16:01.424Z,3.1
2023-02-24T08:21:01.271Z,2.8
2023-02-24T08:26:02.787Z,2.8
2023-02-24T08:31:01.752Z,2.5
2023-02-24T08:36:06.747Z,2.2
2023-02-24T08:41:01.349Z,2.1
2023-02-24T08:46:06.485Z,1.6
2023-02-24T08:51:01.354Z,1.6
2023-02-24T08:56:08.242Z,1.6
2023-02-24T09:01:06.554Z,1.4
2023-02-24T09:06:01.553Z,1.4
2023-02-24T09:11:01.391Z,1.7
2023-02-24T09:16:01.574Z,2.4
2023-02-24T09:21:01.347Z,3.0
2023-02-24T09:26:01.519Z,3.6
2023-02-24T09:31:06.632Z,3.8
2023-02-24T09:36:10.745Z,3.2
2023-02-24T09:46:01.984Z,2.1
2023-02-24T09:51:06.404Z,1.6
2023-02-24T09:56:01.382Z,1.5
2023-02-24T10:01:06.663Z,1.9
2023-02-24T10:06:02.207Z,2.1
2023-02-24T10:11:02.404Z,2.3
2023-02-24T10:22:06.460Z,3.4
2023-02-24T10:27:20.993Z,3.6
2023-02-24T10:32:02.028Z,3.8
2023-02-24T10:37:08.962Z,3.5
2023-02-24T10:42:01.556Z,3.5
2023-02-24T10:47:01.616Z,2.9
2023-02-24T10:52:06.585Z,3.2
2023-02-24T10:57:01.499Z,3.2
2023-02-24T11:03:06.600Z,4.1
2023-02-24T11:08:06.301Z,5.0
2023-02-24T11:13:10.946Z,5.7
2023-02-24T11:18:01.680Z,5.9
2023-02-24T11:23:02.939Z,6.6
2023-02-24T11:28:01.439Z,7.2
2023-02-24T11:33:21.756Z,7.4
2023-02-24T11:38:10.895Z,7.7
2023-02-24T11:43:01.473Z,7.8
2023-02-24T11:48:06.486Z,7.9
2023-02-24T11:58:01.491Z,7.4
2023-02-24T12:03:04.671Z,7.9
2023-02-24T12:08:15.371Z,8.3
2023-02-24T12:13:01.628Z,8.7
2023-02-24T12:18:01.587Z,9.1
2023-02-24T12:23:06.355Z,9.0
2023-02-24T12:28:21.864Z,8.8
2023-02-24T12:33:01.759Z,8.8
2023-02-24T12:38:06.506Z,8.6
2023-02-24T12:48:01.271Z,9.2
2023-02-24T12:53:01.287Z,9.3
2023-02-24T12:58:06.494Z,9.7
2023-02-24T13:03:01.300Z,9.5
2023-02-24T13:08:06.284Z,8.9
2023-02-24T13:13:01.449Z,8.2
2023-02-24T13:18:01.484Z,7.7
2023-02-24T13:23:01.277Z,7.0
2023-02-24T13:28:06.387Z,7.2
2023-02-24T13:33:01.385Z,8.0
2023-02-24T13:38:06.503Z,8.3
2023-02-24T13:43:01.396Z,9.0
2023-02-24T13:48:03.294Z,9.5
2023-02-24T13:53:01.375Z,9.4
2023-02-24T13:58:01.401Z,8.8
2023-02-24T14:03:01.271Z,9.2
2023-02-24T14:08:02.171Z,8.8
2023-02-24T14:13:06.695Z,8.9
2023-02-24T14:18:06.280Z,8.5
2023-02-24T14:23:06.462Z,8.4
2023-02-24T14:28:06.327Z,8.2
2023-02-24T14:33:01.979Z,7.9
2023-02-24T14:38:02.728Z,7.6
2023-02-24T14:43:06.862Z,7.0
2023-02-24T14:48:01.336Z,7.0
2023-02-24T14:53:01.492Z,6.6
2023-02-24T14:58:01.403Z,6.5
2023-02-24T15:03:06.548Z,6.3
2023-02-24T15:08:06.586Z,6.7
2023-02-24T15:13:01.501Z,6.5
2023-02-24T15:18:01.602Z,6.7
2023-02-24T15:23:06.790Z,6.6
2023-02-24T15:28:01.509Z,6.8
2023-02-24T15:33:06.272Z,7.0
2023-02-24T15:38:06.520Z,6.7
2023-02-24T15:43:06.535Z,6.5
2023-02-24T15:48:01.277Z,6.8
2023-02-24T15:53:07.442Z,6.4
2023-02-24T15:58:01.487Z,5.9
2023-02-24T16:03:06.524Z,6.0
2023-02-24T16:08:01.710Z,6.2
2023-02-24T16:13:06.277Z,6.5
2023-02-24T16:18:06.478Z,7.2
2023-02-24T16:23:01.444Z,7.8
2023-02-24T16:28:01.365Z,8.4
2023-02-24T16:33:01.914Z,8.5
2023-02-24T16:38:01.891Z,8.1
2023-02-24T16:43:01.413Z,8.2
2023-02-24T16:48:02.986Z,8.6
2023-02-24T16:53:01.260Z,8.6
2023-02-24T17:03:06.453Z,9.6
2023-02-24T17:08:06.324Z,9.6
2023-02-24T17:13:07.141Z,9.5
2023-02-24T17:18:01.278Z,9.5
2023-02-24T17:23:06.490Z,9.1
2023-02-24T17:28:07.323Z,8.6
2023-02-24T17:33:01.940Z,8.6
2023-02-24T17:38:06.400Z,8.6
2023-02-24T17:43:01.495Z,8.2
2023-02-24T17:48:06.344Z,7.8
2023-02-24T17:53:01.288Z,8.2
2023-02-24T17:58:06.519Z,8.0
2023-02-24T18:03:06.806Z,7.6
2023-02-24T18:08:01.277Z,7.7
2023-02-24T18:13:06.307Z,7.9
2023-02-24T18:18:06.506Z,7.5
2023-02-24T18:23:06.271Z,7.2
2023-02-24T18:28:01.272Z,6.8
2023-02-24T18:33:02.161Z,6.6
2023-02-24T18:38:06.436Z,6.0
2023-02-24T18:43:06.328Z,5.6
2023-02-24T18:48:01.275Z,5.4
2023-02-24T18:53:01.346Z,5.4
2023-02-24T18:58:06.473Z,5.2
2023-02-24T19:03:01.493Z,5.2
2023-02-24T19:08:06.373Z,5.4
2023-02-24T19:13:07.236Z,5.1
2023-02-24T19:18:01.425Z,5.0
2023-02-24T19:23:02.702Z,4.7
2023-02-24T19:28:01.290Z,4.2
2023-02-24T19:33:02.014Z,4.2
2023-02-24T19:43:01.439Z,4.0
2023-02-24T19:48:01.279Z,4.2
2023-02-24T19:53:07.429Z,4.5
2023-02-24T19:58:01.324Z,4.4
2023-02-24T20:03:06.451Z,4.6
2023-02-24T20:08:01.328Z,5.2
2023-02-24T20:13:06.376Z,5.7
2023-02-24T20:18:06.353Z,6.5
2023-02-24T20:23:06.487Z,7.4
2023-02-24T20:28:06.302Z,8.4
2023-02-24T20:33:02.576Z,9.2
2023-02-24T20:38:02.525Z,9.6
2023-02-24T20:43:06.518Z,10.2
2023-02-24T20:48:06.953Z,10.8
2023-02-24T20:53:01.409Z,11.0
2023-02-24T20:58:01.248Z,10.8
2023-02-24T21:03:01.481Z,11.3
2023-02-24T21:08:06.359Z,10.5
2023-02-24T21:13:06.509Z,10.5
2023-02-24T21:18:06.435Z,10.6
2023-02-24T21:23:06.338Z,10.7
2023-02-24T21:28:01.333Z,10.5
2023-02-24T21:33:06.304Z,11.9
2023-02-24T21:38:01.452Z,11.9
2023-02-24T21:43:01.267Z,11.6
2023-02-24T21:48:01.348Z,11.9
2023-02-24T21:53:06.463Z,11.9
2023-02-24T21:58:06.400Z,11.2
2023-02-24T22:03:06.465Z,11.1
2023-02-24T22:08:01.258Z,9.8
2023-02-24T22:13:01.434Z,9.8
2023-02-24T22:18:06.357Z,9.3
2023-02-24T22:23:06.430Z,9.7
2023-02-24T22:28:01.408Z,9.7
2023-02-24T22:33:06.489Z,11.2
2023-02-24T22:38:01.312Z,10.6
2023-02-24T22:43:06.342Z,10.9
2023-02-24T22:48:01.458Z,10.8
2023-02-24T22:53:01.664Z,11.0
2023-02-24T22:58:01.308Z,11.0
2023-02-24T23:08:01.402Z,11.7
2023-02-24T23:13:01.429Z,12.2
2023-02-24T23:18:01.276Z,11.9
2023-02-24T23:23:06.286Z,11.7
2023-02-24T23:28:01.289Z,12.2
2023-02-24T23:33:01.360Z,12.2
2023-02-24T23:38:01.691Z,11.8
2023-02-24T23:43:01.269Z,11.7
2023-02-24T23:48:06.498Z,11.8
2023-02-24T23:53:01.277Z,11.2
2023-02-24T23:58:06.349Z,11.1
